sensor_id;sensor_type;location;lat;lon;timestamp;P1;durP1;ratioP1;P2;durP2;ratioP2
48651;SDS011;34442;52.362;-1.302;2023-12-07T00:00:02;6.78;;;3.72;;
48651;SDS011;34442;52.362;-1.302;2023-12-07T00:02:27;6.78;;;3.80;;
48651;SDS011;34442;52.362;-1.302;2023-12-07T00:04:53;7.25;;;3.90;;
48651;SDS011;34442;52.362;-1.302;2023-12-07T00:07:18;10.18;;;5.03;;
48651;SDS011;34442;52.362;-1.302;2023-12-07T00:09:44;7.55;;;4.28;;
48651;SDS011;34442;52.362;-1.302;2023-12-07T00:12:09;9.85;;;4.75;;
48651;SDS011;34442;52.362;-1.302;2023-12-07T00:14:34;8.55;;;4.20;;
48651;SDS011;34442;52.362;-1.302;2023-12-07T00:17:00;7.82;;;3.85;;
48651;SDS011;34442;52.362;-1.302;2023-12-07T00:19:25;5.47;;;3.00;;
48651;SDS011;34442;52.362;-1.302;2023-12-07T00:21:51;8.57;;;4.07;;
48651;SDS011;34442;52.362;-1.302;2023-12-07T00:24:16;9.10;;;4.85;;
48651;SDS011;34442;52.362;-1.302;2023-12-07T00:26:41;7.50;;;4.03;;
48651;SDS011;34442;52.362;-1.302;2023-12-07T00:29:07;8.05;;;4.70;;
48651;SDS011;34442;52.362;-1.302;2023-12-07T00:31:32;7.10;;;3.13;;
48651;SDS011;34442;52.362;-1.302;2023-12-07T00:33:58;7.78;;;3.80;;
48651;SDS011;34442;52.362;-1.302;2023-12-07T00:36:23;7.78;;;3.97;;
48651;SDS011;34442;52.362;-1.302;2023-12-07T00:38:48;10.23;;;4.85;;
48651;SDS011;34442;52.362;-1.302;2023-12-07T00:41:14;9.95;;;4.57;;
48651;SDS011;34442;52.362;-1.302;2023-12-07T00:43:39;8.77;;;4.55;;
48651;SDS011;34442;52.362;-1.302;2023-12-07T00:46:06;9.05;;;3.90;;
48651;SDS011;34442;52.362;-1.302;2023-12-07T00:48:32;7.13;;;3.67;;
48651;SDS011;34442;52.362;-1.302;2023-12-07T00:50:58;7.90;;;3.70;;
48651;SDS011;34442;52.362;-1.302;2023-12-07T00:53:23;5.93;;;3.20;;
48651;SDS011;34442;52.362;-1.302;2023-12-07T00:55:49;8.60;;;3.85;;
48651;SDS011;34442;52.362;-1.302;2023-12-07T00:58:14;10.70;;;5.75;;
48651;SDS011;34442;52.362;-1.302;2023-12-07T01:00:40;7.30;;;4.15;;
48651;SDS011;34442;52.362;-1.302;2023-12-07T01:03:05;6.10;;;3.17;;
48651;SDS011;34442;52.362;-1.302;2023-12-07T01:05:31;8.45;;;4.45;;
48651;SDS011;34442;52.362;-1.302;2023-12-07T01:07:57;5.82;;;3.08;;
48651;SDS011;34442;52.362;-1.302;2023-12-07T01:10:23;6.38;;;3.55;;
48651;SDS011;34442;52.362;-1.302;2023-12-07T01:12:48;6.15;;;3.47;;
48651;SDS011;34442;52.362;-1.302;2023-12-07T01:15:14;9.30;;;3.60;;
48651;SDS011;34442;52.362;-1.302;2023-12-07T01:17:40;7.18;;;4.10;;
48651;SDS011;34442;52.362;-1.302;2023-12-07T01:20:05;7.28;;;3.17;;
48651;SDS011;34442;52.362;-1.302;2023-12-07T01:22:37;6.55;;;3.53;;
48651;SDS011;34442;52.362;-1.302;2023-12-07T01:25:03;5.68;;;3.05;;
48651;SDS011;34442;52.362;-1.302;2023-12-07T01:27:28;9.95;;;4.90;;
48651;SDS011;34442;52.362;-1.302;2023-12-07T01:29:54;7.40;;;3.47;;
48651;SDS011;34442;52.362;-1.302;2023-12-07T01:32:19;7.10;;;3.40;;
48651;SDS011;34442;52.362;-1.302;2023-12-07T01:34:45;6.88;;;3.88;;
48651;SDS011;34442;52.362;-1.302;2023-12-07T01:37:10;6.53;;;3.97;;
48651;SDS011;34442;52.362;-1.302;2023-12-07T01:39:38;8.60;;;4.07;;
48651;SDS011;34442;52.362;-1.302;2023-12-07T01:42:04;8.45;;;4.40;;
48651;SDS011;34442;52.362;-1.302;2023-12-07T01:44:29;7.85;;;3.90;;
48651;SDS011;34442;52.362;-1.302;2023-12-07T01:46:54;8.25;;;4.32;;
48651;SDS011;34442;52.362;-1.302;2023-12-07T01:49:20;7.40;;;3.63;;
48651;SDS011;34442;52.362;-1.302;2023-12-07T01:51:46;6.50;;;3.72;;
48651;SDS011;34442;52.362;-1.302;2023-12-07T01:54:12;6.72;;;3.30;;
48651;SDS011;34442;52.362;-1.302;2023-12-07T01:56:37;11.48;;;6.10;;
48651;SDS011;34442;52.362;-1.302;2023-12-07T01:59:03;8.68;;;4.75;;
48651;SDS011;34442;52.362;-1.302;2023-12-07T02:01:28;7.55;;;4.50;;
48651;SDS011;34442;52.362;-1.302;2023-12-07T02:03:54;8.65;;;4.15;;
48651;SDS011;34442;52.362;-1.302;2023-12-07T02:06:19;8.10;;;4.32;;
48651;SDS011;34442;52.362;-1.302;2023-12-07T02:08:45;9.95;;;4.30;;
48651;SDS011;34442;52.362;-1.302;2023-12-07T02:11:11;7.05;;;3.60;;
48651;SDS011;34442;52.362;-1.302;2023-12-07T02:13:37;8.80;;;4.35;;
48651;SDS011;34442;52.362;-1.302;2023-12-07T02:16:06;8.00;;;4.63;;
48651;SDS011;34442;52.362;-1.302;2023-12-07T02:18:40;7.45;;;3.58;;
48651;SDS011;34442;52.362;-1.302;2023-12-07T02:23:49;6.50;;;3.45;;
48651;SDS011;34442;52.362;-1.302;2023-12-07T02:26:18;6.38;;;3.30;;
48651;SDS011;34442;52.362;-1.302;2023-12-07T02:28:46;10.57;;;4.95;;
48651;SDS011;34442;52.362;-1.302;2023-12-07T02:31:12;7.35;;;3.60;;
48651;SDS011;34442;52.362;-1.302;2023-12-07T02:33:38;6.50;;;3.30;;
48651;SDS011;34442;52.362;-1.302;2023-12-07T02:36:04;7.10;;;3.67;;
48651;SDS011;34442;52.362;-1.302;2023-12-07T02:38:30;8.93;;;3.38;;
48651;SDS011;34442;52.362;-1.302;2023-12-07T02:40:56;7.80;;;4.00;;
48651;SDS011;34442;52.362;-1.302;2023-12-07T02:43:22;7.30;;;3.47;;
48651;SDS011;34442;52.362;-1.302;2023-12-07T02:45:48;7.47;;;3.97;;
48651;SDS011;34442;52.362;-1.302;2023-12-07T02:48:13;5.30;;;3.20;;
48651;SDS011;34442;52.362;-1.302;2023-12-07T02:50:39;6.32;;;3.95;;
48651;SDS011;34442;52.362;-1.302;2023-12-07T02:53:05;6.57;;;3.50;;
48651;SDS011;34442;52.362;-1.302;2023-12-07T02:55:30;5.95;;;3.42;;
48651;SDS011;34442;52.362;-1.302;2023-12-07T02:57:55;5.75;;;2.92;;
48651;SDS011;34442;52.362;-1.302;2023-12-07T03:00:21;7.57;;;3.72;;
48651;SDS011;34442;52.362;-1.302;2023-12-07T03:02:47;6.07;;;3.13;;
48651;SDS011;34442;52.362;-1.302;2023-12-07T03:05:13;7.05;;;2.92;;
48651;SDS011;34442;52.362;-1.302;2023-12-07T03:07:38;6.55;;;3.55;;
48651;SDS011;34442;52.362;-1.302;2023-12-07T03:10:04;9.88;;;4.25;;
48651;SDS011;34442;52.362;-1.302;2023-12-07T03:12:30;5.70;;;3.20;;
48651;SDS011;34442;52.362;-1.302;2023-12-07T03:14:55;7.68;;;4.05;;
48651;SDS011;34442;52.362;-1.302;2023-12-07T03:17:21;6.15;;;3.63;;
48651;SDS011;34442;52.362;-1.302;2023-12-07T03:19:46;7.43;;;3.00;;
48651;SDS011;34442;52.362;-1.302;2023-12-07T03:22:12;5.32;;;2.95;;
48651;SDS011;34442;52.362;-1.302;2023-12-07T03:24:38;6.15;;;3.30;;
48651;SDS011;34442;52.362;-1.302;2023-12-07T03:27:05;5.28;;;2.88;;
48651;SDS011;34442;52.362;-1.302;2023-12-07T03:29:31;6.75;;;2.75;;
48651;SDS011;34442;52.362;-1.302;2023-12-07T03:31:57;9.98;;;3.70;;
48651;SDS011;34442;52.362;-1.302;2023-12-07T03:34:23;8.25;;;3.80;;
48651;SDS011;34442;52.362;-1.302;2023-12-07T03:36:49;6.60;;;2.63;;
48651;SDS011;34442;52.362;-1.302;2023-12-07T03:39:14;5.22;;;3.17;;
48651;SDS011;34442;52.362;-1.302;2023-12-07T03:41:41;8.23;;;3.85;;
48651;SDS011;34442;52.362;-1.302;2023-12-07T03:44:07;5.53;;;2.53;;
48651;SDS011;34442;52.362;-1.302;2023-12-07T03:46:32;6.38;;;3.40;;
48651;SDS011;34442;52.362;-1.302;2023-12-07T03:48:57;5.45;;;3.10;;
48651;SDS011;34442;52.362;-1.302;2023-12-07T03:51:24;5.40;;;2.95;;
48651;SDS011;34442;52.362;-1.302;2023-12-07T03:53:51;5.50;;;2.88;;
48651;SDS011;34442;52.362;-1.302;2023-12-07T03:56:26;5.78;;;2.95;;
48651;SDS011;34442;52.362;-1.302;2023-12-07T03:58:52;8.70;;;5.22;;
48651;SDS011;34442;52.362;-1.302;2023-12-07T04:01:18;8.18;;;3.85;;
48651;SDS011;34442;52.362;-1.302;2023-12-07T04:03:47;7.43;;;3.60;;
48651;SDS011;34442;52.362;-1.302;2023-12-07T04:06:13;7.43;;;4.30;;
48651;SDS011;34442;52.362;-1.302;2023-12-07T04:08:38;6.78;;;3.58;;
48651;SDS011;34442;52.362;-1.302;2023-12-07T04:11:04;5.82;;;2.92;;
48651;SDS011;34442;52.362;-1.302;2023-12-07T04:13:29;5.60;;;2.60;;
48651;SDS011;34442;52.362;-1.302;2023-12-07T04:15:55;5.43;;;2.50;;
48651;SDS011;34442;52.362;-1.302;2023-12-07T04:18:20;8.52;;;3.00;;
48651;SDS011;34442;52.362;-1.302;2023-12-07T04:20:45;9.73;;;3.10;;
48651;SDS011;34442;52.362;-1.302;2023-12-07T04:23:11;5.60;;;2.80;;
48651;SDS011;34442;52.362;-1.302;2023-12-07T04:25:37;6.03;;;2.92;;
48651;SDS011;34442;52.362;-1.302;2023-12-07T04:28:02;10.60;;;4.35;;
48651;SDS011;34442;52.362;-1.302;2023-12-07T04:30:28;9.90;;;3.78;;
48651;SDS011;34442;52.362;-1.302;2023-12-07T04:32:53;5.68;;;2.88;;
48651;SDS011;34442;52.362;-1.302;2023-12-07T04:35:19;11.80;;;4.43;;
48651;SDS011;34442;52.362;-1.302;2023-12-07T04:37:44;6.88;;;3.15;;
48651;SDS011;34442;52.362;-1.302;2023-12-07T04:40:09;8.20;;;4.55;;
48651;SDS011;34442;52.362;-1.302;2023-12-07T04:42:35;6.75;;;3.22;;
48651;SDS011;34442;52.362;-1.302;2023-12-07T04:45:04;7.20;;;3.17;;
48651;SDS011;34442;52.362;-1.302;2023-12-07T04:47:31;8.52;;;3.60;;
48651;SDS011;34442;52.362;-1.302;2023-12-07T04:49:57;7.85;;;3.72;;
48651;SDS011;34442;52.362;-1.302;2023-12-07T04:52:22;7.28;;;3.67;;
48651;SDS011;34442;52.362;-1.302;2023-12-07T04:54:48;6.20;;;3.53;;
48651;SDS011;34442;52.362;-1.302;2023-12-07T04:57:14;5.25;;;2.75;;
48651;SDS011;34442;52.362;-1.302;2023-12-07T04:59:39;7.13;;;3.20;;
48651;SDS011;34442;52.362;-1.302;2023-12-07T05:02:05;8.25;;;3.35;;
48651;SDS011;34442;52.362;-1.302;2023-12-07T05:04:31;8.35;;;3.35;;
48651;SDS011;34442;52.362;-1.302;2023-12-07T05:06:58;8.73;;;4.05;;
48651;SDS011;34442;52.362;-1.302;2023-12-07T05:09:24;6.95;;;3.72;;
48651;SDS011;34442;52.362;-1.302;2023-12-07T05:11:49;6.00;;;3.13;;
48651;SDS011;34442;52.362;-1.302;2023-12-07T05:14:15;7.25;;;3.40;;
48651;SDS011;34442;52.362;-1.302;2023-12-07T05:16:40;7.28;;;3.53;;
48651;SDS011;34442;52.362;-1.302;2023-12-07T05:19:05;7.53;;;3.95;;
48651;SDS011;34442;52.362;-1.302;2023-12-07T05:21:31;5.15;;;2.60;;
48651;SDS011;34442;52.362;-1.302;2023-12-07T05:23:57;5.85;;;2.65;;
48651;SDS011;34442;52.362;-1.302;2023-12-07T05:26:22;5.07;;;2.53;;
48651;SDS011;34442;52.362;-1.302;2023-12-07T05:28:47;5.55;;;3.08;;
48651;SDS011;34442;52.362;-1.302;2023-12-07T05:31:19;5.22;;;2.67;;
48651;SDS011;34442;52.362;-1.302;2023-12-07T05:33:44;6.43;;;3.33;;
48651;SDS011;34442;52.362;-1.302;2023-12-07T05:36:10;6.72;;;3.00;;
48651;SDS011;34442;52.362;-1.302;2023-12-07T05:38:35;5.85;;;3.15;;
48651;SDS011;34442;52.362;-1.302;2023-12-07T05:41:01;5.95;;;3.17;;
48651;SDS011;34442;52.362;-1.302;2023-12-07T05:43:26;4.85;;;2.58;;
48651;SDS011;34442;52.362;-1.302;2023-12-07T05:45:52;6.70;;;3.58;;
48651;SDS011;34442;52.362;-1.302;2023-12-07T05:48:17;6.93;;;3.47;;
48651;SDS011;34442;52.362;-1.302;2023-12-07T05:50:43;7.82;;;3.55;;
48651;SDS011;34442;52.362;-1.302;2023-12-07T05:53:08;4.82;;;2.90;;
48651;SDS011;34442;52.362;-1.302;2023-12-07T05:55:34;8.50;;;4.32;;
48651;SDS011;34442;52.362;-1.302;2023-12-07T05:57:59;7.63;;;3.90;;
48651;SDS011;34442;52.362;-1.302;2023-12-07T06:00:25;4.70;;;2.65;;
48651;SDS011;34442;52.362;-1.302;2023-12-07T06:02:50;6.53;;;3.50;;
48651;SDS011;34442;52.362;-1.302;2023-12-07T06:05:15;7.45;;;3.65;;
48651;SDS011;34442;52.362;-1.302;2023-12-07T06:07:41;6.40;;;3.30;;
48651;SDS011;34442;52.362;-1.302;2023-12-07T06:10:06;5.93;;;3.80;;
48651;SDS011;34442;52.362;-1.302;2023-12-07T06:12:32;6.97;;;3.78;;
48651;SDS011;34442;52.362;-1.302;2023-12-07T06:14:58;5.30;;;2.70;;
48651;SDS011;34442;52.362;-1.302;2023-12-07T06:17:23;8.63;;;4.20;;
48651;SDS011;34442;52.362;-1.302;2023-12-07T06:19:49;6.00;;;3.55;;
48651;SDS011;34442;52.362;-1.302;2023-12-07T06:22:14;6.80;;;4.00;;
48651;SDS011;34442;52.362;-1.302;2023-12-07T06:24:39;6.38;;;4.03;;
48651;SDS011;34442;52.362;-1.302;2023-12-07T06:27:05;6.80;;;3.55;;
48651;SDS011;34442;52.362;-1.302;2023-12-07T06:29:31;8.05;;;3.70;;
48651;SDS011;34442;52.362;-1.302;2023-12-07T06:31:57;7.55;;;3.63;;
48651;SDS011;34442;52.362;-1.302;2023-12-07T06:34:22;7.00;;;4.10;;
48651;SDS011;34442;52.362;-1.302;2023-12-07T06:36:48;6.60;;;3.97;;
48651;SDS011;34442;52.362;-1.302;2023-12-07T06:39:13;6.65;;;3.47;;
48651;SDS011;34442;52.362;-1.302;2023-12-07T06:41:42;7.60;;;3.28;;
48651;SDS011;34442;52.362;-1.302;2023-12-07T06:44:07;5.63;;;3.83;;
48651;SDS011;34442;52.362;-1.302;2023-12-07T06:46:33;7.25;;;3.63;;
48651;SDS011;34442;52.362;-1.302;2023-12-07T06:48:58;6.95;;;2.85;;
48651;SDS011;34442;52.362;-1.302;2023-12-07T06:51:25;6.68;;;3.40;;
48651;SDS011;34442;52.362;-1.302;2023-12-07T06:53:50;4.45;;;2.42;;
48651;SDS011;34442;52.362;-1.302;2023-12-07T06:56:16;5.78;;;2.80;;
48651;SDS011;34442;52.362;-1.302;2023-12-07T06:58:41;5.65;;;3.38;;
48651;SDS011;34442;52.362;-1.302;2023-12-07T07:01:07;5.72;;;2.70;;
48651;SDS011;34442;52.362;-1.302;2023-12-07T07:03:32;5.55;;;2.97;;
48651;SDS011;34442;52.362;-1.302;2023-12-07T07:05:58;8.82;;;4.95;;
48651;SDS011;34442;52.362;-1.302;2023-12-07T07:08:24;5.78;;;3.38;;
48651;SDS011;34442;52.362;-1.302;2023-12-07T07:10:50;8.10;;;3.80;;
48651;SDS011;34442;52.362;-1.302;2023-12-07T07:13:15;7.93;;;3.35;;
48651;SDS011;34442;52.362;-1.302;2023-12-07T07:15:42;5.75;;;2.88;;
48651;SDS011;34442;52.362;-1.302;2023-12-07T07:18:12;6.70;;;3.78;;
48651;SDS011;34442;52.362;-1.302;2023-12-07T07:20:38;5.65;;;3.20;;
48651;SDS011;34442;52.362;-1.302;2023-12-07T07:23:04;5.07;;;2.70;;
48651;SDS011;34442;52.362;-1.302;2023-12-07T07:25:30;5.30;;;2.95;;
48651;SDS011;34442;52.362;-1.302;2023-12-07T07:27:55;10.48;;;4.60;;
48651;SDS011;34442;52.362;-1.302;2023-12-07T07:30:21;7.40;;;4.05;;
48651;SDS011;34442;52.362;-1.302;2023-12-07T07:32:46;6.07;;;3.20;;
48651;SDS011;34442;52.362;-1.302;2023-12-07T07:35:12;6.38;;;3.30;;
48651;SDS011;34442;52.362;-1.302;2023-12-07T07:37:40;6.68;;;3.72;;
48651;SDS011;34442;52.362;-1.302;2023-12-07T07:40:09;5.60;;;3.25;;
48651;SDS011;34442;52.362;-1.302;2023-12-07T07:42:37;5.05;;;2.65;;
48651;SDS011;34442;52.362;-1.302;2023-12-07T07:45:04;6.10;;;3.00;;
48651;SDS011;34442;52.362;-1.302;2023-12-07T07:47:31;10.55;;;4.28;;
48651;SDS011;34442;52.362;-1.302;2023-12-07T07:49:57;8.43;;;4.07;;
48651;SDS011;34442;52.362;-1.302;2023-12-07T07:52:23;6.40;;;2.80;;
48651;SDS011;34442;52.362;-1.302;2023-12-07T07:54:49;6.53;;;3.28;;
48651;SDS011;34442;52.362;-1.302;2023-12-07T07:57:14;6.32;;;3.30;;
48651;SDS011;34442;52.362;-1.302;2023-12-07T07:59:39;6.93;;;4.03;;
48651;SDS011;34442;52.362;-1.302;2023-12-07T08:02:05;8.15;;;3.95;;
48651;SDS011;34442;52.362;-1.302;2023-12-07T08:04:30;6.53;;;3.40;;
48651;SDS011;34442;52.362;-1.302;2023-12-07T08:06:55;5.85;;;2.92;;
48651;SDS011;34442;52.362;-1.302;2023-12-07T08:09:21;5.45;;;2.88;;
48651;SDS011;34442;52.362;-1.302;2023-12-07T08:11:46;6.30;;;3.33;;
48651;SDS011;34442;52.362;-1.302;2023-12-07T08:14:12;7.13;;;3.58;;
48651;SDS011;34442;52.362;-1.302;2023-12-07T08:16:37;7.80;;;4.10;;
48651;SDS011;34442;52.362;-1.302;2023-12-07T08:19:03;7.65;;;3.40;;
48651;SDS011;34442;52.362;-1.302;2023-12-07T08:21:28;4.30;;;2.70;;
48651;SDS011;34442;52.362;-1.302;2023-12-07T08:23:54;9.02;;;3.45;;
48651;SDS011;34442;52.362;-1.302;2023-12-07T08:26:20;5.63;;;2.97;;
48651;SDS011;34442;52.362;-1.302;2023-12-07T08:28:45;7.20;;;3.33;;
48651;SDS011;34442;52.362;-1.302;2023-12-07T08:31:11;5.60;;;3.50;;
48651;SDS011;34442;52.362;-1.302;2023-12-07T08:33:37;6.78;;;3.70;;
48651;SDS011;34442;52.362;-1.302;2023-12-07T08:36:05;5.22;;;3.10;;
48651;SDS011;34442;52.362;-1.302;2023-12-07T08:38:31;5.40;;;2.97;;
48651;SDS011;34442;52.362;-1.302;2023-12-07T08:40:57;6.95;;;4.15;;
48651;SDS011;34442;52.362;-1.302;2023-12-07T08:43:23;7.50;;;4.15;;
48651;SDS011;34442;52.362;-1.302;2023-12-07T08:45:52;6.95;;;3.72;;
48651;SDS011;34442;52.362;-1.302;2023-12-07T08:48:18;8.38;;;3.90;;
48651;SDS011;34442;52.362;-1.302;2023-12-07T08:50:45;10.60;;;5.03;;
48651;SDS011;34442;52.362;-1.302;2023-12-07T08:53:11;9.85;;;5.10;;
48651;SDS011;34442;52.362;-1.302;2023-12-07T08:55:36;8.30;;;3.70;;
48651;SDS011;34442;52.362;-1.302;2023-12-07T08:58:02;9.13;;;4.30;;
48651;SDS011;34442;52.362;-1.302;2023-12-07T09:00:30;8.82;;;4.28;;
48651;SDS011;34442;52.362;-1.302;2023-12-07T09:02:56;8.48;;;3.75;;
48651;SDS011;34442;52.362;-1.302;2023-12-07T09:05:22;5.95;;;2.55;;
48651;SDS011;34442;52.362;-1.302;2023-12-07T09:07:47;5.05;;;2.88;;
48651;SDS011;34442;52.362;-1.302;2023-12-07T09:10:13;5.05;;;2.90;;
48651;SDS011;34442;52.362;-1.302;2023-12-07T09:12:38;6.88;;;3.33;;
48651;SDS011;34442;52.362;-1.302;2023-12-07T09:15:04;5.75;;;2.40;;
48651;SDS011;34442;52.362;-1.302;2023-12-07T09:17:30;6.07;;;3.15;;
48651;SDS011;34442;52.362;-1.302;2023-12-07T09:19:56;6.57;;;3.35;;
48651;SDS011;34442;52.362;-1.302;2023-12-07T09:22:21;6.40;;;2.63;;
48651;SDS011;34442;52.362;-1.302;2023-12-07T09:24:46;3.80;;;2.17;;
48651;SDS011;34442;52.362;-1.302;2023-12-07T09:27:15;5.95;;;2.72;;
48651;SDS011;34442;52.362;-1.302;2023-12-07T09:29:40;6.53;;;3.72;;
48651;SDS011;34442;52.362;-1.302;2023-12-07T09:32:07;6.13;;;3.42;;
48651;SDS011;34442;52.362;-1.302;2023-12-07T09:34:33;5.38;;;2.60;;
48651;SDS011;34442;52.362;-1.302;2023-12-07T09:37:08;7.45;;;3.30;;
48651;SDS011;34442;52.362;-1.302;2023-12-07T09:39:34;5.57;;;2.55;;
48651;SDS011;34442;52.362;-1.302;2023-12-07T09:42:00;4.28;;;2.40;;
48651;SDS011;34442;52.362;-1.302;2023-12-07T09:44:26;3.22;;;1.83;;
48651;SDS011;34442;52.362;-1.302;2023-12-07T09:46:52;4.72;;;2.35;;
48651;SDS011;34442;52.362;-1.302;2023-12-07T09:49:18;4.85;;;2.53;;
48651;SDS011;34442;52.362;-1.302;2023-12-07T09:51:44;4.40;;;2.35;;
48651;SDS011;34442;52.362;-1.302;2023-12-07T09:54:11;6.15;;;2.45;;
48651;SDS011;34442;52.362;-1.302;2023-12-07T09:56:37;5.15;;;2.35;;
48651;SDS011;34442;52.362;-1.302;2023-12-07T09:59:02;4.35;;;2.13;;
48651;SDS011;34442;52.362;-1.302;2023-12-07T10:01:29;3.85;;;2.00;;
48651;SDS011;34442;52.362;-1.302;2023-12-07T10:04:20;7.60;;;3.22;;
48651;SDS011;34442;52.362;-1.302;2023-12-07T10:06:53;6.20;;;2.75;;
48651;SDS011;34442;52.362;-1.302;2023-12-07T10:09:19;5.93;;;2.83;;
48651;SDS011;34442;52.362;-1.302;2023-12-07T10:11:46;4.80;;;2.35;;
48651;SDS011;34442;52.362;-1.302;2023-12-07T10:14:13;7.70;;;2.92;;
48651;SDS011;34442;52.362;-1.302;2023-12-07T10:16:39;7.93;;;3.30;;
48651;SDS011;34442;52.362;-1.302;2023-12-07T10:19:22;8.82;;;3.58;;
48651;SDS011;34442;52.362;-1.302;2023-12-07T10:21:48;6.28;;;2.80;;
48651;SDS011;34442;52.362;-1.302;2023-12-07T10:24:18;4.63;;;2.50;;
48651;SDS011;34442;52.362;-1.302;2023-12-07T10:26:45;6.82;;;3.08;;
48651;SDS011;34442;52.362;-1.302;2023-12-07T10:29:11;5.22;;;2.42;;
48651;SDS011;34442;52.362;-1.302;2023-12-07T10:31:37;4.70;;;2.15;;
48651;SDS011;34442;52.362;-1.302;2023-12-07T10:34:02;6.93;;;3.05;;
48651;SDS011;34442;52.362;-1.302;2023-12-07T10:36:29;5.20;;;2.33;;
48651;SDS011;34442;52.362;-1.302;2023-12-07T10:38:55;4.82;;;2.40;;
48651;SDS011;34442;52.362;-1.302;2023-12-07T10:41:21;5.00;;;2.22;;
48651;SDS011;34442;52.362;-1.302;2023-12-07T10:43:51;5.10;;;2.20;;
48651;SDS011;34442;52.362;-1.302;2023-12-07T10:46:21;4.25;;;2.42;;
48651;SDS011;34442;52.362;-1.302;2023-12-07T10:48:47;5.82;;;3.30;;
48651;SDS011;34442;52.362;-1.302;2023-12-07T10:53:53;6.38;;;2.33;;
48651;SDS011;34442;52.362;-1.302;2023-12-07T10:56:28;5.25;;;1.80;;
48651;SDS011;34442;52.362;-1.302;2023-12-07T10:58:58;5.32;;;2.60;;
48651;SDS011;34442;52.362;-1.302;2023-12-07T11:01:24;8.93;;;3.05;;
48651;SDS011;34442;52.362;-1.302;2023-12-07T11:03:51;5.78;;;2.63;;
48651;SDS011;34442;52.362;-1.302;2023-12-07T11:06:18;5.65;;;2.97;;
48651;SDS011;34442;52.362;-1.302;2023-12-07T11:08:47;5.28;;;1.92;;
48651;SDS011;34442;52.362;-1.302;2023-12-07T11:11:38;5.80;;;2.38;;
48651;SDS011;34442;52.362;-1.302;2023-12-07T11:14:16;5.53;;;2.28;;
48651;SDS011;34442;52.362;-1.302;2023-12-07T11:16:42;4.68;;;2.05;;
48651;SDS011;34442;52.362;-1.302;2023-12-07T11:21:54;5.53;;;1.92;;
48651;SDS011;34442;52.362;-1.302;2023-12-07T11:24:20;3.38;;;1.85;;
48651;SDS011;34442;52.362;-1.302;2023-12-07T11:26:46;5.40;;;2.15;;
48651;SDS011;34442;52.362;-1.302;2023-12-07T11:29:11;3.85;;;2.13;;
48651;SDS011;34442;52.362;-1.302;2023-12-07T11:31:40;9.13;;;3.00;;
48651;SDS011;34442;52.362;-1.302;2023-12-07T11:34:06;5.63;;;2.40;;
48651;SDS011;34442;52.362;-1.302;2023-12-07T11:36:32;4.25;;;1.90;;
48651;SDS011;34442;52.362;-1.302;2023-12-07T11:39:19;5.85;;;2.35;;
48651;SDS011;34442;52.362;-1.302;2023-12-07T11:41:44;4.38;;;1.90;;
48651;SDS011;34442;52.362;-1.302;2023-12-07T11:44:10;4.07;;;1.70;;
48651;SDS011;34442;52.362;-1.302;2023-12-07T11:46:40;3.60;;;1.73;;
48651;SDS011;34442;52.362;-1.302;2023-12-07T11:49:05;4.13;;;1.83;;
48651;SDS011;34442;52.362;-1.302;2023-12-07T11:51:35;4.95;;;1.83;;
48651;SDS011;34442;52.362;-1.302;2023-12-07T11:54:01;4.22;;;1.88;;
48651;SDS011;34442;52.362;-1.302;2023-12-07T11:56:26;5.10;;;1.90;;
48651;SDS011;34442;52.362;-1.302;2023-12-07T11:58:52;5.40;;;2.30;;
48651;SDS011;34442;52.362;-1.302;2023-12-07T12:01:18;4.13;;;1.88;;
48651;SDS011;34442;52.362;-1.302;2023-12-07T12:03:43;4.43;;;2.17;;
48651;SDS011;34442;52.362;-1.302;2023-12-07T12:06:08;3.35;;;1.73;;
48651;SDS011;34442;52.362;-1.302;2023-12-07T12:08:35;6.45;;;2.42;;
48651;SDS011;34442;52.362;-1.302;2023-12-07T12:11:01;5.32;;;2.25;;
48651;SDS011;34442;52.362;-1.302;2023-12-07T12:13:29;8.10;;;2.85;;
48651;SDS011;34442;52.362;-1.302;2023-12-07T12:15:59;3.58;;;1.63;;
48651;SDS011;34442;52.362;-1.302;2023-12-07T12:18:26;5.20;;;1.85;;
48651;SDS011;34442;52.362;-1.302;2023-12-07T12:20:52;10.35;;;2.47;;
48651;SDS011;34442;52.362;-1.302;2023-12-07T12:23:19;5.28;;;1.92;;
48651;SDS011;34442;52.362;-1.302;2023-12-07T12:25:45;7.05;;;2.53;;
48651;SDS011;34442;52.362;-1.302;2023-12-07T12:28:11;4.07;;;1.70;;
48651;SDS011;34442;52.362;-1.302;2023-12-07T12:30:39;5.53;;;2.38;;
48651;SDS011;34442;52.362;-1.302;2023-12-07T12:33:05;3.92;;;2.10;;
48651;SDS011;34442;52.362;-1.302;2023-12-07T12:35:31;6.32;;;2.15;;
48651;SDS011;34442;52.362;-1.302;2023-12-07T12:37:57;4.03;;;2.03;;
48651;SDS011;34442;52.362;-1.302;2023-12-07T12:40:23;5.45;;;1.90;;
48651;SDS011;34442;52.362;-1.302;2023-12-07T12:42:52;4.50;;;2.03;;
48651;SDS011;34442;52.362;-1.302;2023-12-07T12:45:18;5.68;;;2.25;;
48651;SDS011;34442;52.362;-1.302;2023-12-07T12:47:45;6.78;;;2.60;;
48651;SDS011;34442;52.362;-1.302;2023-12-07T12:50:13;4.38;;;1.80;;
48651;SDS011;34442;52.362;-1.302;2023-12-07T12:53:05;5.40;;;2.00;;
48651;SDS011;34442;52.362;-1.302;2023-12-07T12:55:32;5.13;;;1.60;;
48651;SDS011;34442;52.362;-1.302;2023-12-07T12:58:00;5.45;;;1.58;;
48651;SDS011;34442;52.362;-1.302;2023-12-07T13:00:25;4.80;;;1.67;;
48651;SDS011;34442;52.362;-1.302;2023-12-07T13:02:51;4.70;;;1.73;;
48651;SDS011;34442;52.362;-1.302;2023-12-07T13:05:16;3.90;;;1.92;;
48651;SDS011;34442;52.362;-1.302;2023-12-07T13:07:43;5.22;;;2.20;;
48651;SDS011;34442;52.362;-1.302;2023-12-07T13:10:09;5.85;;;2.38;;
48651;SDS011;34442;52.362;-1.302;2023-12-07T13:12:35;4.22;;;1.80;;
48651;SDS011;34442;52.362;-1.302;2023-12-07T13:15:01;5.35;;;2.38;;
48651;SDS011;34442;52.362;-1.302;2023-12-07T13:17:26;4.00;;;1.70;;
48651;SDS011;34442;52.362;-1.302;2023-12-07T13:19:52;4.45;;;2.08;;
48651;SDS011;34442;52.362;-1.302;2023-12-07T13:22:17;4.85;;;1.77;;
48651;SDS011;34442;52.362;-1.302;2023-12-07T13:24:43;5.68;;;2.13;;
48651;SDS011;34442;52.362;-1.302;2023-12-07T13:27:08;7.30;;;2.28;;
48651;SDS011;34442;52.362;-1.302;2023-12-07T13:29:34;7.18;;;1.98;;
48651;SDS011;34442;52.362;-1.302;2023-12-07T13:31:59;2.75;;;1.55;;
48651;SDS011;34442;52.362;-1.302;2023-12-07T13:34:24;4.75;;;2.08;;
48651;SDS011;34442;52.362;-1.302;2023-12-07T13:36:51;9.90;;;2.47;;
48651;SDS011;34442;52.362;-1.302;2023-12-07T13:39:16;5.15;;;1.73;;
48651;SDS011;34442;52.362;-1.302;2023-12-07T13:41:45;7.50;;;2.28;;
48651;SDS011;34442;52.362;-1.302;2023-12-07T13:44:13;4.25;;;1.75;;
48651;SDS011;34442;52.362;-1.302;2023-12-07T13:46:38;4.50;;;1.60;;
48651;SDS011;34442;52.362;-1.302;2023-12-07T13:49:03;3.47;;;1.52;;
48651;SDS011;34442;52.362;-1.302;2023-12-07T13:51:29;4.45;;;1.58;;
48651;SDS011;34442;52.362;-1.302;2023-12-07T13:53:59;5.45;;;2.47;;
48651;SDS011;34442;52.362;-1.302;2023-12-07T13:56:24;6.80;;;2.08;;
48651;SDS011;34442;52.362;-1.302;2023-12-07T13:58:50;3.90;;;1.63;;
48651;SDS011;34442;52.362;-1.302;2023-12-07T14:01:16;5.72;;;2.30;;
48651;SDS011;34442;52.362;-1.302;2023-12-07T14:03:42;3.50;;;1.75;;
48651;SDS011;34442;52.362;-1.302;2023-12-07T14:06:08;6.18;;;2.00;;
48651;SDS011;34442;52.362;-1.302;2023-12-07T14:08:34;4.32;;;1.80;;
48651;SDS011;34442;52.362;-1.302;2023-12-07T14:11:01;5.88;;;2.50;;
48651;SDS011;34442;52.362;-1.302;2023-12-07T14:13:27;4.07;;;1.77;;
48651;SDS011;34442;52.362;-1.302;2023-12-07T14:15:52;4.53;;;1.85;;
48651;SDS011;34442;52.362;-1.302;2023-12-07T14:18:18;2.88;;;1.63;;
48651;SDS011;34442;52.362;-1.302;2023-12-07T14:20:43;5.93;;;2.05;;
48651;SDS011;34442;52.362;-1.302;2023-12-07T14:23:09;4.30;;;1.60;;
48651;SDS011;34442;52.362;-1.302;2023-12-07T14:25:34;5.47;;;2.25;;
48651;SDS011;34442;52.362;-1.302;2023-12-07T14:28:00;4.80;;;1.60;;
48651;SDS011;34442;52.362;-1.302;2023-12-07T14:30:25;3.03;;;1.50;;
48651;SDS011;34442;52.362;-1.302;2023-12-07T14:32:50;5.68;;;2.05;;
48651;SDS011;34442;52.362;-1.302;2023-12-07T14:35:19;6.82;;;2.15;;